Time;durP1;ratioP1;P1;durP2;ratioP2;P2;SDS_P1;SDS_P2;PMS_P1;PMS_P2;Temp;Humidity;BMP_temperature;BMP_pressure;BME280_temperature;BME280_humidity;BME280_pressure;Samples;Min_cycle;Max_cycle;Signal;HPM_P1;HPM_P2
2022/01/08 00:00:00;;;;;;;9.57;2.70;;;2.60;99.90;;;;;;5036263;28;20204;-61
2022/01/08 00:02:29;;;;;;;6.47;2.73;;;2.50;99.90;;;;;;5034844;28;20196;-58
2022/01/08 00:04:58;;;;;;;5.53;3.07;;;2.50;99.90;;;;;;5037207;28;20200;-61
2022/01/08 00:07:27;;;;;;;6.83;3.00;;;2.40;99.90;;;;;;5034827;28;20319;-60
2022/01/08 00:09:55;;;;;;;8.97;3.40;;;2.40;99.90;;;;;;5035873;28;20207;-60
2022/01/08 00:12:24;;;;;;;3.17;2.80;;;2.40;99.90;;;;;;5034037;28;20296;-60
2022/01/08 00:14:54;;;;;;;6.73;2.70;;;2.40;99.90;;;;;;5038309;28;20193;-61
2022/01/08 00:17:23;;;;;;;7.70;3.10;;;2.40;99.90;;;;;;5036514;28;20217;-61
2022/01/08 00:19:52;;;;;;;7.10;3.30;;;2.30;99.90;;;;;;5036694;28;20216;-60
2022/01/08 00:22:21;;;;;;;7.67;3.40;;;2.40;99.90;;;;;;5038625;28;20203;-60
2022/01/08 00:24:52;;;;;;;7.43;3.50;;;2.40;99.90;;;;;;5030664;28;20208;-61
2022/01/08 00:27:21;;;;;;;6.90;3.40;;;2.40;99.90;;;;;;5032472;28;20201;-60
2022/01/08 00:29:50;;;;;;;5.10;3.33;;;2.40;99.90;;;;;;5041267;28;20207;-60
2022/01/08 00:32:19;;;;;;;11.07;3.33;;;2.40;99.90;;;;;;5041159;28;20232;-60
2022/01/08 00:34:49;;;;;;;3.80;3.37;;;2.30;99.90;;;;;;5041913;28;20707;-60
2022/01/08 00:37:17;;;;;;;5.63;3.10;;;2.30;99.90;;;;;;5041760;28;20220;-61
2022/01/08 00:39:47;;;;;;;7.73;3.53;;;2.20;99.90;;;;;;5033852;28;20201;-60
2022/01/08 00:42:16;;;;;;;6.60;3.60;;;2.20;99.90;;;;;;5044212;28;20251;-61
2022/01/08 00:44:44;;;;;;;12.97;4.07;;;2.10;99.90;;;;;;5043741;28;20195;-60
2022/01/08 00:47:13;;;;;;;8.30;4.30;;;2.20;99.90;;;;;;5040823;28;20188;-61
2022/01/08 00:49:43;;;;;;;8.10;4.90;;;2.20;99.90;;;;;;5008832;28;20201;-61
2022/01/08 00:52:11;;;;;;;10.13;4.77;;;2.20;99.90;;;;;;5034613;28;20206;-60
2022/01/08 00:54:40;;;;;;;13.37;4.83;;;2.20;99.90;;;;;;5045859;28;20205;-60
2022/01/08 00:57:10;;;;;;;13.87;5.40;;;2.10;99.90;;;;;;5042088;28;20227;-61
2022/01/08 00:59:38;;;;;;;9.73;5.00;;;2.10;99.90;;;;;;5043900;28;20193;-61
2022/01/08 01:02:07;;;;;;;13.13;5.27;;;2.00;99.90;;;;;;5042868;28;20201;-60
2022/01/08 01:04:35;;;;;;;12.77;5.30;;;2.00;99.90;;;;;;5039648;28;20189;-61
2022/01/08 01:07:06;;;;;;;12.43;5.33;;;2.00;99.90;;;;;;5046476;28;20185;-61
2022/01/08 01:09:34;;;;;;;11.10;5.70;;;2.00;99.90;;;;;;5047518;28;20277;-60
2022/01/08 01:12:03;;;;;;;10.43;5.50;;;1.90;99.90;;;;;;5047318;28;20193;-61
2022/01/08 01:14:31;;;;;;;15.33;6.13;;;1.90;99.90;;;;;;5043116;28;20185;-61
2022/01/08 01:17:00;;;;;;;15.77;5.90;;;1.90;99.90;;;;;;5043389;28;20240;-61
2022/01/08 01:19:29;;;;;;;14.33;6.13;;;1.80;99.90;;;;;;5035750;28;20225;-61
2022/01/08 01:21:59;;;;;;;10.27;6.17;;;1.80;99.90;;;;;;5042693;28;20250;-61
2022/01/08 01:24:31;;;;;;;17.63;5.90;;;1.80;99.90;;;;;;5041571;28;20315;-61
2022/01/08 01:27:26;;;;;;;11.60;6.20;;;1.80;99.90;;;;;;5043687;28;20259;-61
2022/01/08 01:30:03;;;;;;;9.63;6.37;;;1.80;99.90;;;;;;5046382;28;20238;-61
2022/01/08 01:41:18;;;;;;;18.53;6.00;;;1.90;99.90;;;;;;5046132;28;20201;-61
2022/01/08 01:49:21;;;;;;;9.67;6.03;;;1.80;99.90;;;;;;5045643;28;20202;-61
2022/01/08 01:51:52;;;;;;;13.33;5.33;;;1.80;99.90;;;;;;5045543;28;20668;-60
2022/01/08 01:54:21;;;;;;;15.03;5.57;;;1.70;99.90;;;;;;5046807;28;20282;-61
2022/01/08 01:56:51;;;;;;;12.70;5.33;;;1.70;99.90;;;;;;5049205;28;20221;-61
2022/01/08 01:59:19;;;;;;;11.13;5.40;;;1.60;99.90;;;;;;5048814;28;20193;-61
2022/01/08 02:01:48;;;;;;;11.93;5.17;;;1.60;99.90;;;;;;5040893;28;20202;-61
2022/01/08 02:04:16;;;;;;;11.10;5.10;;;1.50;99.90;;;;;;5040089;28;20296;-61
2022/01/08 02:06:45;;;;;;;11.90;5.10;;;1.50;99.90;;;;;;5040646;28;20212;-61
2022/01/08 02:09:14;;;;;;;11.70;4.80;;;1.50;99.90;;;;;;5025689;28;20744;-60
2022/01/08 02:12:01;;;;;;;14.00;4.83;;;1.60;99.90;;;;;;5046063;28;20202;-61
2022/01/08 02:14:31;;;;;;;8.53;4.73;;;1.60;99.90;;;;;;5040661;28;20188;-61
2022/01/08 02:17:00;;;;;;;8.13;4.90;;;1.60;99.90;;;;;;5040019;28;20204;-61
2022/01/08 02:19:29;;;;;;;9.30;5.17;;;1.70;99.90;;;;;;5040372;28;20271;-61
2022/01/08 02:22:00;;;;;;;11.83;5.17;;;1.70;99.90;;;;;;5047557;28;20233;-61
2022/01/08 02:24:29;;;;;;;11.77;5.37;;;1.70;99.90;;;;;;5046350;28;20197;-61
2022/01/08 02:26:58;;;;;;;14.37;5.13;;;1.70;99.90;;;;;;5042543;28;20710;-60
2022/01/08 02:29:27;;;;;;;16.77;5.43;;;1.70;99.90;;;;;;5044563;28;20201;-61
2022/01/08 02:31:57;;;;;;;11.73;4.80;;;1.70;99.90;;;;;;5041971;28;20208;-61
2022/01/08 02:34:27;;;;;;;13.70;5.07;;;1.80;99.90;;;;;;5053050;28;20224;-61
2022/01/08 02:36:56;;;;;;;14.63;5.80;;;1.80;99.90;;;;;;5046114;28;20225;-61
2022/01/08 02:39:26;;;;;;;15.07;5.23;;;1.80;99.90;;;;;;5045998;28;20212;-60
2022/01/08 02:41:58;;;;;;;9.30;4.97;;;1.80;99.90;;;;;;5045769;28;20197;-61
2022/01/08 02:44:28;;;;;;;15.47;5.40;;;1.80;99.90;;;;;;5041992;28;20217;-61
2022/01/08 02:46:56;;;;;;;9.83;4.97;;;1.80;99.90;;;;;;5045748;28;20668;-61
2022/01/08 02:49:25;;;;;;;14.93;5.67;;;1.80;99.90;;;;;;5041665;28;20201;-61
2022/01/08 02:51:53;;;;;;;13.23;5.97;;;1.90;99.90;;;;;;5049189;28;20193;-61
2022/01/08 02:54:22;;;;;;;11.50;5.80;;;1.80;99.90;;;;;;5045507;28;20247;-61
2022/01/08 02:56:52;;;;;;;11.53;5.40;;;1.80;99.90;;;;;;5047919;28;20217;-61
2022/01/08 02:59:21;;;;;;;11.83;5.20;;;1.80;99.90;;;;;;5040449;28;20204;-60
2022/01/08 03:01:49;;;;;;;11.67;5.30;;;1.80;99.90;;;;;;5044653;28;20734;-60
2022/01/08 03:04:18;;;;;;;18.03;5.93;;;1.80;99.90;;;;;;5042096;28;20228;-61
2022/01/08 03:06:47;;;;;;;13.00;5.77;;;1.80;99.90;;;;;;5047057;28;20192;-61
2022/01/08 03:09:15;;;;;;;9.17;4.97;;;1.80;99.90;;;;;;5031753;28;20197;-61
2022/01/08 03:11:44;;;;;;;10.47;5.03;;;1.80;99.90;;;;;;5043275;28;20193;-60
2022/01/08 03:14:14;;;;;;;8.20;5.40;;;1.80;99.90;;;;;;5040706;28;20307;-61
2022/01/08 03:16:42;;;;;;;9.03;5.37;;;1.70;99.90;;;;;;5037906;28;20205;-60
2022/01/08 03:19:11;;;;;;;6.57;5.17;;;1.70;99.90;;;;;;5041483;28;20398;-60
2022/01/08 03:21:42;;;;;;;9.87;5.10;;;1.70;99.90;;;;;;5041238;28;20598;-61
2022/01/08 03:24:15;;;;;;;14.27;5.57;;;1.70;99.90;;;;;;5046209;28;20200;-61
2022/01/08 03:26:44;;;;;;;9.40;5.30;;;1.70;99.90;;;;;;5045382;28;20204;-61
2022/01/08 03:29:13;;;;;;;12.60;5.47;;;1.70;99.90;;;;;;5046254;28;20197;-61
2022/01/08 03:31:42;;;;;;;9.37;5.20;;;1.70;99.90;;;;;;5039099;28;20228;-61
2022/01/08 03:34:11;;;;;;;12.70;5.37;;;1.60;99.90;;;;;;5044248;28;20272;-61
2022/01/08 03:36:39;;;;;;;10.40;5.47;;;1.50;99.90;;;;;;5040756;28;20262;-61
2022/01/08 03:39:08;;;;;;;14.33;6.20;;;1.40;99.90;;;;;;5045212;28;20200;-61
2022/01/08 03:41:36;;;;;;;15.00;5.97;;;1.40;99.90;;;;;;5045140;28;20216;-61
2022/01/08 03:44:05;;;;;;;16.77;5.73;;;1.30;99.90;;;;;;5058755;28;20197;-61
2022/01/08 03:46:36;;;;;;;9.93;5.33;;;1.20;99.90;;;;;;5040792;28;20200;-61
2022/01/08 03:49:22;;;;;;;14.87;6.03;;;1.10;99.90;;;;;;5040775;28;20212;-61
2022/01/08 03:51:51;;;;;;;13.43;5.83;;;1.00;99.90;;;;;;5042058;28;20283;-60
2022/01/08 03:54:20;;;;;;;11.57;5.57;;;1.00;99.90;;;;;;5043691;28;20200;-61
2022/01/08 03:56:49;;;;;;;12.23;5.50;;;1.10;99.90;;;;;;5044378;28;20299;-61
2022/01/08 03:59:18;;;;;;;9.63;6.20;;;1.20;99.90;;;;;;5044121;28;20240;-60
2022/01/08 04:01:48;;;;;;;11.17;5.47;;;1.20;99.90;;;;;;5040865;28;20199;-60
2022/01/08 04:04:16;;;;;;;12.17;6.33;;;1.20;99.90;;;;;;5040959;28;20205;-60
2022/01/08 04:06:45;;;;;;;16.13;6.90;;;1.20;99.90;;;;;;5041662;28;20215;-61
2022/01/08 04:09:14;;;;;;;13.57;7.60;;;1.30;99.90;;;;;;5043082;28;20200;-61
2022/01/08 04:11:43;;;;;;;17.43;7.90;;;1.30;99.90;;;;;;5045339;28;20299;-60
2022/01/08 04:14:12;;;;;;;15.33;8.20;;;1.40;99.90;;;;;;5043262;28;20278;-61
2022/01/08 04:16:46;;;;;;;14.77;9.33;;;1.40;99.90;;;;;;5039308;28;20216;-60
2022/01/08 04:19:16;;;;;;;17.80;9.47;;;1.40;99.90;;;;;;5041390;28;20666;-61
2022/01/08 04:22:02;;;;;;;22.90;10.03;;;1.50;99.90;;;;;;5038236;28;20729;-61
2022/01/08 04:24:31;;;;;;;22.33;10.97;;;1.40;99.90;;;;;;5040039;28;20626;-60
2022/01/08 04:26:59;;;;;;;27.03;12.60;;;1.50;99.90;;;;;;5037250;28;20299;-61
2022/01/08 04:29:27;;;;;;;29.40;12.53;;;1.60;99.90;;;;;;5039400;28;20205;-61
2022/01/08 04:31:56;;;;;;;25.67;12.90;;;1.60;99.90;;;;;;5015298;28;20201;-60
2022/01/08 04:34:27;;;;;;;27.40;13.63;;;1.60;99.90;;;;;;5042521;28;20916;-61
2022/01/08 04:36:56;;;;;;;25.63;13.00;;;1.80;99.90;;;;;;5040288;28;20705;-60
2022/01/08 04:39:24;;;;;;;28.27;13.60;;;1.80;99.90;;;;;;5047423;28;20278;-60
2022/01/08 04:41:53;;;;;;;28.10;14.43;;;1.80;99.90;;;;;;5046589;28;20201;-61
2022/01/08 04:44:21;;;;;;;30.20;14.20;;;1.90;99.90;;;;;;5048028;28;20201;-61
2022/01/08 04:46:50;;;;;;;35.13;14.97;;;1.90;99.90;;;;;;5047214;28;20224;-61
2022/01/08 04:49:18;;;;;;;29.27;14.57;;;1.90;99.90;;;;;;5037328;28;20652;-60
2022/01/08 04:51:48;;;;;;;32.13;14.07;;;2.00;99.90;;;;;;5046443;28;20193;-61
2022/01/08 04:54:17;;;;;;;31.33;14.47;;;2.10;99.90;;;;;;5038204;28;20186;-60
2022/01/08 04:56:45;;;;;;;32.37;14.00;;;2.10;99.90;;;;;;5042633;28;20200;-61
2022/01/08 04:59:14;;;;;;;29.70;13.73;;;2.10;99.90;;;;;;5049515;28;20223;-61
2022/01/08 05:01:44;;;;;;;29.73;14.23;;;2.10;99.90;;;;;;5047624;28;20193;-60
2022/01/08 05:04:12;;;;;;;28.93;13.67;;;2.00;99.90;;;;;;5043437;28;20764;-61
2022/01/08 05:06:43;;;;;;;29.20;13.87;;;2.00;99.90;;;;;;5033457;28;20903;-61
2022/01/08 05:09:13;;;;;;;27.47;13.87;;;2.00;99.90;;;;;;5046891;28;20572;-61
2022/01/08 05:11:41;;;;;;;26.67;13.10;;;2.00;99.90;;;;;;5042654;28;20752;-61
2022/01/08 05:14:11;;;;;;;32.30;13.70;;;2.00;99.90;;;;;;5049356;28;20872;-60
2022/01/08 05:16:41;;;;;;;30.60;13.23;;;1.90;99.90;;;;;;5045582;28;20725;-61
2022/01/08 05:19:09;;;;;;;30.13;13.90;;;1.90;99.90;;;;;;5042557;28;20304;-60
2022/01/08 05:21:39;;;;;;;28.80;14.00;;;1.80;99.90;;;;;;5043632;28;20242;-61
2022/01/08 05:24:07;;;;;;;32.33;13.97;;;1.80;99.90;;;;;;5044090;28;20256;-61
2022/01/08 05:26:37;;;;;;;28.57;14.00;;;1.70;99.90;;;;;;5042472;28;20607;-61
2022/01/08 05:29:06;;;;;;;31.50;13.53;;;1.60;99.90;;;;;;5046533;28;20757;-61
2022/01/08 05:31:34;;;;;;;29.50;13.67;;;1.60;99.90;;;;;;5042394;28;20592;-61
2022/01/08 05:34:03;;;;;;;28.83;14.00;;;1.50;99.90;;;;;;5039888;28;20716;-60
2022/01/08 05:36:31;;;;;;;32.10;13.67;;;1.50;99.90;;;;;;5041502;28;20699;-61
2022/01/08 05:39:00;;;;;;;25.07;13.10;;;1.50;99.90;;;;;;5046171;28;20619;-61
2022/01/08 05:41:28;;;;;;;33.83;14.33;;;1.50;99.90;;;;;;5048541;28;20204;-61
2022/01/08 05:43:58;;;;;;;33.07;13.70;;;1.50;99.90;;;;;;5049136;28;20197;-61
2022/01/08 05:46:26;;;;;;;26.60;12.97;;;1.40;99.90;;;;;;5045574;28;20651;-61
2022/01/08 05:49:00;;;;;;;28.90;13.73;;;1.40;99.90;;;;;;5042467;28;20702;-60
2022/01/08 05:51:28;;;;;;;26.00;12.87;;;1.40;99.90;;;;;;5045246;28;20195;-60
2022/01/08 05:53:57;;;;;;;31.07;14.10;;;1.40;99.90;;;;;;5044128;28;20223;-60
2022/01/08 05:56:25;;;;;;;35.80;13.67;;;1.40;99.90;;;;;;5038812;28;20557;-61
2022/01/08 05:58:53;;;;;;;31.63;14.17;;;1.40;99.90;;;;;;5041458;28;20213;-61
2022/01/08 06:01:23;;;;;;;28.97;14.37;;;1.40;99.90;;;;;;5039326;28;20361;-61
2022/01/08 06:03:52;;;;;;;35.37;14.43;;;1.40;99.90;;;;;;5035206;28;20683;-61
2022/01/08 06:06:21;;;;;;;31.27;14.60;;;1.40;99.90;;;;;;5042830;28;20605;-60
2022/01/08 06:08:49;;;;;;;33.90;14.47;;;1.50;99.90;;;;;;5044949;28;20223;-61
2022/01/08 06:11:17;;;;;;;28.67;13.77;;;1.50;99.90;;;;;;5041642;28;20224;-61
2022/01/08 06:13:46;;;;;;;30.67;13.37;;;1.50;99.90;;;;;;5043499;28;20200;-61
2022/01/08 06:16:14;;;;;;;28.57;14.10;;;1.60;99.90;;;;;;5042743;28;20557;-60
2022/01/08 06:18:44;;;;;;;34.53;14.73;;;1.60;99.90;;;;;;5038268;28;20225;-60
2022/01/08 06:21:13;;;;;;;29.13;14.03;;;1.60;99.90;;;;;;5036629;28;20193;-60
2022/01/08 06:23:41;;;;;;;31.83;14.40;;;1.70;99.90;;;;;;5041545;28;20735;-60
2022/01/08 06:26:10;;;;;;;30.63;13.87;;;1.70;99.90;;;;;;5036487;28;20735;-61
2022/01/08 06:28:38;;;;;;;33.67;14.73;;;1.60;99.90;;;;;;5042724;28;20281;-61
2022/01/08 06:31:07;;;;;;;31.13;14.17;;;1.60;99.90;;;;;;5040496;28;20564;-60
2022/01/08 06:33:35;;;;;;;30.07;13.00;;;1.60;99.90;;;;;;5037445;28;20203;-61
2022/01/08 06:36:05;;;;;;;26.90;13.10;;;1.70;99.90;;;;;;5047778;28;20663;-61
2022/01/08 06:38:34;;;;;;;29.30;12.87;;;1.70;99.90;;;;;;5040462;28;20909;-60
2022/01/08 06:41:02;;;;;;;31.87;12.57;;;1.60;99.90;;;;;;5045283;28;20437;-61
2022/01/08 06:43:31;;;;;;;27.40;11.73;;;1.70;99.90;;;;;;5046586;28;20204;-61
2022/01/08 06:45:59;;;;;;;25.30;11.77;;;1.70;99.90;;;;;;5038753;28;20297;-61
2022/01/08 06:48:28;;;;;;;26.67;12.20;;;1.70;99.90;;;;;;5035484;28;20197;-60
2022/01/08 06:50:56;;;;;;;31.13;11.50;;;1.70;99.90;;;;;;5038050;28;20252;-61
2022/01/08 06:53:26;;;;;;;27.73;11.43;;;1.80;99.90;;;;;;5049102;28;20855;-60
2022/01/08 06:55:55;;;;;;;23.00;10.63;;;1.80;99.90;;;;;;5043057;28;20262;-61
2022/01/08 06:58:25;;;;;;;28.87;10.90;;;1.80;99.90;;;;;;5017984;28;20656;-61
2022/01/08 07:00:54;;;;;;;23.37;10.47;;;1.80;99.90;;;;;;5036289;28;20306;-60
2022/01/08 07:03:23;;;;;;;25.67;10.97;;;1.80;99.90;;;;;;5045300;28;20283;-61
2022/01/08 07:05:52;;;;;;;26.70;10.73;;;1.80;99.90;;;;;;5035886;28;20211;-60
2022/01/08 07:08:21;;;;;;;27.77;10.53;;;1.90;99.90;;;;;;5035516;28;20212;-61
2022/01/08 07:10:51;;;;;;;28.83;10.57;;;1.90;99.90;;;;;;5038487;28;20578;-60
2022/01/08 07:13:19;;;;;;;23.53;10.00;;;1.90;99.90;;;;;;5040567;28;20805;-61
2022/01/08 07:15:48;;;;;;;23.30;9.83;;;1.80;99.90;;;;;;5036953;28;20212;-60
2022/01/08 07:18:16;;;;;;;25.73;10.97;;;1.90;99.90;;;;;;5037841;28;20296;-61
2022/01/08 07:20:45;;;;;;;22.07;10.93;;;1.90;99.90;;;;;;5044177;28;20789;-61
2022/01/08 07:23:13;;;;;;;22.30;11.40;;;1.80;99.90;;;;;;5044288;28;20208;-60
2022/01/08 07:25:42;;;;;;;22.20;11.20;;;1.80;99.90;;;;;;5036596;28;20209;-61
2022/01/08 07:28:11;;;;;;;26.73;11.93;;;1.80;99.90;;;;;;5043142;28;20819;-61
2022/01/08 07:30:40;;;;;;;20.87;10.27;;;1.80;99.90;;;;;;5042395;28;20201;-61
2022/01/08 07:33:08;;;;;;;22.83;10.40;;;1.80;99.90;;;;;;5046163;28;20197;-60
2022/01/08 07:35:37;;;;;;;20.07;10.27;;;1.80;99.90;;;;;;5045644;28;20232;-60
2022/01/08 07:38:06;;;;;;;20.10;9.90;;;1.80;99.90;;;;;;5038063;28;20239;-60
2022/01/08 07:40:35;;;;;;;27.63;10.37;;;1.80;99.90;;;;;;5043799;28;20621;-60
2022/01/08 07:43:04;;;;;;;25.13;10.17;;;1.90;99.90;;;;;;5045249;28;20189;-61
2022/01/08 07:45:34;;;;;;;24.80;10.00;;;1.90;99.90;;;;;;5046867;28;20204;-60
2022/01/08 07:48:03;;;;;;;17.93;9.07;;;1.90;99.90;;;;;;5044763;28;20266;-61
2022/01/08 07:50:31;;;;;;;15.37;9.17;;;1.90;99.90;;;;;;5044180;28;20252;-60
2022/01/08 07:53:00;;;;;;;18.83;8.50;;;2.00;99.90;;;;;;5043337;28;20201;-61
2022/01/08 07:55:29;;;;;;;15.47;8.20;;;2.00;99.90;;;;;;5043333;28;20192;-61
2022/01/08 07:57:57;;;;;;;18.80;7.93;;;2.00;99.90;;;;;;5042056;28;20213;-61
2022/01/08 08:00:26;;;;;;;13.43;7.97;;;2.00;99.90;;;;;;5042640;28;20239;-60
2022/01/08 08:02:55;;;;;;;15.30;8.03;;;2.00;99.90;;;;;;5042521;28;20802;-61
2022/01/08 08:05:24;;;;;;;15.10;7.07;;;2.10;99.90;;;;;;5041235;28;20668;-60
2022/01/08 08:07:54;;;;;;;18.20;7.40;;;2.10;99.90;;;;;;5044064;28;20235;-60
2022/01/08 08:10:25;;;;;;;19.03;6.50;;;2.10;99.90;;;;;;5047658;28;20231;-60
2022/01/08 08:12:55;;;;;;;15.50;6.80;;;2.10;99.90;;;;;;5036913;28;20229;-60
2022/01/08 08:15:24;;;;;;;11.43;6.43;;;2.20;99.90;;;;;;5034324;28;20196;-60
2022/01/08 08:17:55;;;;;;;13.97;6.87;;;2.20;99.90;;;;;;5042460;28;20204;-60
2022/01/08 08:20:23;;;;;;;17.20;6.50;;;2.30;99.90;;;;;;5044151;28;20686;-61
2022/01/08 08:22:52;;;;;;;8.93;5.97;;;2.30;99.90;;;;;;5050511;28;20235;-60
2022/01/08 08:25:20;;;;;;;17.80;10.13;;;2.30;99.90;;;;;;5048745;28;20206;-60
2022/01/08 08:27:50;;;;;;;36.87;16.63;;;2.40;99.90;;;;;;5047295;28;20208;-60
2022/01/08 08:30:18;;;;;;;66.30;27.93;;;2.40;99.90;;;;;;5048780;28;20279;-60
2022/01/08 08:32:46;;;;;;;50.23;22.63;;;2.40;99.90;;;;;;5048270;28;20293;-60
2022/01/08 08:35:17;;;;;;;29.20;17.13;;;2.40;99.90;;;;;;5043041;28;21079;-60
2022/01/08 08:37:45;;;;;;;10.93;6.90;;;2.50;99.90;;;;;;5045627;28;20216;-60
2022/01/08 08:40:15;;;;;;;26.60;16.13;;;2.50;99.90;;;;;;5039154;28;20287;-60
2022/01/08 08:42:44;;;;;;;14.67;6.80;;;2.50;99.90;;;;;;5049731;28;20254;-60
2022/01/08 08:45:13;;;;;;;12.70;6.97;;;2.60;99.90;;;;;;5047443;28;20219;-60
2022/01/08 08:47:42;;;;;;;14.27;6.70;;;2.60;99.90;;;;;;5046118;28;20197;-60
2022/01/08 08:50:13;;;;;;;12.80;7.27;;;2.60;99.90;;;;;;5038474;28;20211;-61
2022/01/08 08:52:43;;;;;;;14.23;7.10;;;2.60;99.90;;;;;;5047483;28;20204;-60
2022/01/08 08:55:14;;;;;;;9.87;5.97;;;2.60;99.90;;;;;;5048085;28;20197;-60
2022/01/08 08:57:43;;;;;;;12.53;5.30;;;2.60;99.90;;;;;;5048011;28;20201;-60
2022/01/08 09:00:13;;;;;;;9.63;5.67;;;2.70;99.90;;;;;;5051596;28;20278;-60
2022/01/08 09:02:42;;;;;;;9.70;6.27;;;2.60;99.90;;;;;;5050157;28;20208;-60
2022/01/08 09:05:11;;;;;;;12.00;6.00;;;2.70;99.90;;;;;;5050522;28;20188;-60
2022/01/08 09:07:40;;;;;;;6.20;4.77;;;2.70;99.90;;;;;;5047864;28;20199;-60
2022/01/08 09:10:11;;;;;;;7.87;4.77;;;2.70;99.90;;;;;;5048484;28;20196;-60
2022/01/08 09:12:41;;;;;;;12.33;5.60;;;2.70;99.90;;;;;;5037694;28;20608;-60
2022/01/08 09:15:12;;;;;;;8.07;4.83;;;2.70;99.90;;;;;;5042174;28;20198;-61
2022/01/08 09:17:41;;;;;;;9.37;5.17;;;2.80;99.90;;;;;;5045725;28;20204;-60
2022/01/08 09:20:11;;;;;;;9.57;5.00;;;2.80;99.90;;;;;;5041709;28;20217;-60
2022/01/08 09:22:40;;;;;;;9.07;5.00;;;2.90;99.90;;;;;;5037147;28;20221;-60
2022/01/08 09:25:11;;;;;;;11.07;5.37;;;2.90;99.90;;;;;;5042182;28;20213;-60
2022/01/08 09:27:39;;;;;;;8.03;5.07;;;2.90;99.90;;;;;;5045078;28;20193;-60
2022/01/08 09:30:08;;;;;;;10.97;4.70;;;2.90;99.90;;;;;;5046050;28;20219;-60
2022/01/08 09:32:37;;;;;;;7.60;4.67;;;3.00;99.90;;;;;;5045274;28;20248;-60
2022/01/08 09:35:07;;;;;;;7.00;4.83;;;3.00;99.90;;;;;;5044841;28;20271;-60
2022/01/08 09:37:37;;;;;;;11.60;5.63;;;3.10;99.90;;;;;;5047021;28;20415;-61
2022/01/08 09:40:08;;;;;;;12.20;5.20;;;3.10;99.90;;;;;;5048435;28;20233;-61
2022/01/08 09:42:38;;;;;;;12.80;6.10;;;3.10;99.90;;;;;;5048831;28;20258;-61
2022/01/08 09:45:06;;;;;;;7.07;4.70;;;3.10;99.90;;;;;;5048267;28;20204;-60
2022/01/08 09:47:37;;;;;;;8.20;5.20;;;3.10;99.90;;;;;;5046423;28;20215;-60
2022/01/08 09:50:07;;;;;;;8.53;6.20;;;3.10;99.90;;;;;;5042826;28;20660;-60
2022/01/08 09:52:36;;;;;;;10.67;6.10;;;3.10;99.90;;;;;;5049490;28;20203;-60
2022/01/08 09:55:06;;;;;;;8.43;6.07;;;3.10;99.90;;;;;;5047807;28;20201;-60
2022/01/08 09:57:36;;;;;;;10.83;6.47;;;3.20;99.90;;;;;;5045070;28;20218;-60
2022/01/08 10:00:11;;;;;;;7.70;5.70;;;3.20;99.90;;;;;;5048480;28;20201;-61
2022/01/08 10:02:39;;;;;;;9.80;5.73;;;3.20;99.90;;;;;;5032307;28;20299;-60
2022/01/08 10:05:10;;;;;;;11.07;5.87;;;3.20;99.90;;;;;;5045256;28;20206;-60
2022/01/08 10:07:40;;;;;;;7.67;5.30;;;3.20;99.90;;;;;;5045351;28;20723;-60
2022/01/08 10:10:14;;;;;;;9.77;5.67;;;3.20;99.90;;;;;;5044677;28;20219;-60
2022/01/08 10:12:48;;;;;;;10.93;6.23;;;3.20;99.90;;;;;;5024830;28;20290;-60
2022/01/08 10:18:10;;;;;;;7.03;6.20;;;3.20;99.90;;;;;;5043854;28;20292;-60
2022/01/08 10:20:43;;;;;;;9.97;5.93;;;3.10;99.90;;;;;;5048904;28;20240;-60
2022/01/08 10:23:16;;;;;;;11.00;6.03;;;3.10;99.90;;;;;;5047896;28;20232;-61
2022/01/08 10:25:56;;;;;;;9.37;6.63;;;3.20;99.90;;;;;;5036136;28;20242;-60
2022/01/08 10:28:36;;;;;;;11.87;6.40;;;3.20;99.90;;;;;;5038163;28;20201;-60
2022/01/08 10:31:11;;;;;;;10.00;7.70;;;3.20;99.90;;;;;;5039236;28;20193;-60
2022/01/08 10:33:40;;;;;;;14.00;6.53;;;3.20;99.90;;;;;;5049300;28;20791;-60
2022/01/08 10:36:09;;;;;;;7.83;6.03;;;3.20;99.90;;;;;;5045672;28;20193;-60
2022/01/08 10:38:37;;;;;;;10.20;6.20;;;3.20;99.90;;;;;;5030489;28;20193;-59
2022/01/08 10:41:13;;;;;;;9.73;5.83;;;3.20;99.90;;;;;;5046762;28;20232;-62
2022/01/08 10:43:44;;;;;;;9.87;5.93;;;3.20;99.90;;;;;;5039652;28;20279;-60
2022/01/08 10:46:18;;;;;;;9.77;7.00;;;3.30;99.90;;;;;;5042456;28;20209;-61
2022/01/08 10:48:49;;;;;;;10.97;7.50;;;3.30;99.90;;;;;;5046016;28;20211;-60
2022/01/08 10:51:22;;;;;;;17.57;9.53;;;3.30;99.90;;;;;;5041992;28;20201;-60
2022/01/08 10:53:55;;;;;;;11.60;7.20;;;3.30;99.90;;;;;;5038364;28;20204;-60
2022/01/08 10:56:30;;;;;;;11.27;6.20;;;3.30;99.90;;;;;;5047206;28;20196;-60
2022/01/08 10:59:03;;;;;;;8.37;6.00;;;3.30;99.90;;;;;;5047467;28;20200;-60
2022/01/08 11:02:04;;;;;;;21.43;9.67;;;3.40;99.90;;;;;;5050501;28;20219;-60
2022/01/08 11:04:47;;;;;;;11.93;7.10;;;3.40;99.90;;;;;;4979533;28;20213;-60
2022/01/08 11:07:17;;;;;;;9.50;6.23;;;3.50;99.90;;;;;;5034118;28;20945;-60
2022/01/08 11:09:48;;;;;;;10.50;6.77;;;3.50;99.90;;;;;;5044493;28;20739;-61
2022/01/08 11:12:19;;;;;;;12.83;7.13;;;3.50;99.90;;;;;;5045387;28;20197;-60
2022/01/08 11:17:40;;;;;;;9.87;6.77;;;3.50;99.90;;;;;;5033743;28;20198;-61
2022/01/08 11:20:11;;;;;;;12.17;7.10;;;3.50;99.90;;;;;;5043923;28;20200;-60
2022/01/08 11:22:41;;;;;;;13.60;8.07;;;3.50;99.90;;;;;;5039064;28;20232;-61
2022/01/08 11:25:12;;;;;;;14.77;8.67;;;3.60;99.90;;;;;;5044718;28;20218;-61
2022/01/08 11:27:53;;;;;;;14.83;8.87;;;3.60;99.90;;;;;;5039363;28;20185;-60
2022/01/08 11:30:26;;;;;;;15.30;8.43;;;3.60;99.90;;;;;;5042821;28;20197;-61
2022/01/08 11:32:57;;;;;;;16.30;9.10;;;3.60;99.90;;;;;;5043771;28;20201;-61
2022/01/08 11:35:41;;;;;;;16.23;8.80;;;3.60;99.90;;;;;;5042393;28;20228;-60
2022/01/08 11:38:11;;;;;;;14.20;9.00;;;3.60;99.90;;;;;;5040121;28;20200;-61
2022/01/08 11:40:43;;;;;;;18.87;12.33;;;3.50;99.90;;;;;;5045503;28;20291;-60
2022/01/08 11:43:13;;;;;;;15.10;9.80;;;3.50;99.90;;;;;;5044213;28;20208;-60
2022/01/08 11:45:48;;;;;;;15.63;9.33;;;3.50;99.90;;;;;;5044171;28;20184;-61
2022/01/08 11:48:19;;;;;;;15.60;9.23;;;3.50;99.90;;;;;;5043218;28;20224;-62
2022/01/08 11:50:52;;;;;;;16.13;10.00;;;3.60;99.90;;;;;;5043786;28;20231;-61
2022/01/08 11:53:22;;;;;;;16.30;11.00;;;3.60;99.90;;;;;;5039174;28;20188;-61
2022/01/08 11:55:53;;;;;;;21.87;10.00;;;3.60;99.90;;;;;;5042798;28;20205;-61
2022/01/08 11:58:26;;;;;;;15.37;9.90;;;3.60;99.90;;;;;;5045414;28;20258;-61
2022/01/08 12:00:58;;;;;;;17.90;9.53;;;3.70;99.90;;;;;;5039556;28;20620;-61
2022/01/08 12:04:05;;;;;;;13.23;8.83;;;3.70;99.90;;;;;;5047241;28;20207;-62
2022/01/08 12:07:34;;;;;;;13.67;8.63;;;3.80;99.90;;;;;;5037536;28;20215;-61
2022/01/08 12:10:12;;;;;;;12.13;8.57;;;3.80;99.90;;;;;;5043325;28;20196;-61
2022/01/08 12:12:53;;;;;;;14.30;8.30;;;3.80;99.90;;;;;;5041008;28;20196;-61
2022/01/08 12:15:48;;;;;;;15.03;7.80;;;3.80;99.90;;;;;;5047374;28;20199;-61
2022/01/08 12:18:20;;;;;;;10.90;7.77;;;3.90;99.90;;;;;;5046578;28;20211;-61
2022/01/08 12:20:51;;;;;;;8.90;7.23;;;3.90;99.90;;;;;;5043673;28;20540;-61
2022/01/08 12:23:35;;;;;;;9.23;7.17;;;3.90;99.90;;;;;;5046140;28;20307;-61
2022/01/08 12:26:06;;;;;;;9.20;7.43;;;3.90;99.90;;;;;;5041711;28;20200;-61
2022/01/08 12:29:00;;;;;;;12.83;7.73;;;3.90;99.90;;;;;;5044452;28;20205;-61
2022/01/08 12:31:38;;;;;;;11.17;7.77;;;4.00;99.90;;;;;;5025564;28;20216;-61
2022/01/08 12:34:37;;;;;;;9.80;7.97;;;4.00;99.90;;;;;;5037844;28;20318;-62
2022/01/08 12:37:10;;;;;;;13.73;7.90;;;4.00;99.90;;;;;;5046305;28;20204;-61
2022/01/08 12:39:51;;;;;;;13.53;7.73;;;4.10;99.90;;;;;;5045978;28;20275;-61
2022/01/08 12:42:34;;;;;;;13.60;8.10;;;4.10;99.90;;;;;;5044404;28;20248;-61
2022/01/08 12:45:06;;;;;;;9.13;7.40;;;4.20;99.90;;;;;;5045395;28;20232;-61
2022/01/08 12:47:55;;;;;;;12.17;7.87;;;4.20;99.90;;;;;;5045732;28;20272;-62
2022/01/08 12:50:35;;;;;;;12.13;7.63;;;4.20;99.90;;;;;;5041607;28;20288;-62
2022/01/08 12:53:22;;;;;;;12.13;6.93;;;4.30;99.90;;;;;;5044746;28;20536;-62
2022/01/08 12:56:11;;;;;;;9.43;7.03;;;4.30;99.90;;;;;;5045129;28;20873;-62
2022/01/08 12:58:49;;;;;;;9.67;7.60;;;4.40;99.90;;;;;;5040418;28;20189;-62
2022/01/08 13:01:26;;;;;;;9.70;8.33;;;4.40;99.90;;;;;;5040796;28;20317;-62
2022/01/08 13:03:57;;;;;;;12.50;7.07;;;4.50;99.90;;;;;;5040997;28;20265;-62
2022/01/08 13:06:33;;;;;;;10.73;7.97;;;4.60;99.90;;;;;;5047650;28;20260;-61
2022/01/08 13:09:04;;;;;;;13.40;7.70;;;4.60;99.90;;;;;;5046171;28;20202;-62
2022/01/08 13:11:34;;;;;;;12.40;8.60;;;4.70;99.90;;;;;;5028360;28;20603;-61
2022/01/08 13:14:04;;;;;;;8.90;7.40;;;4.80;99.90;;;;;;5049121;28;20287;-61
2022/01/08 13:16:36;;;;;;;12.23;8.17;;;4.80;99.90;;;;;;5042520;28;20635;-62
2022/01/08 13:19:05;;;;;;;11.43;7.57;;;4.90;99.90;;;;;;5043300;28;20287;-61
2022/01/08 13:21:36;;;;;;;10.80;7.77;;;4.90;99.90;;;;;;5043420;28;20203;-62
2022/01/08 13:24:14;;;;;;;12.27;7.33;;;5.00;99.90;;;;;;5045936;28;20213;-61